Time;durP1;ratioP1;P1;durP2;ratioP2;P2;SDS_P1;SDS_P2;PMS_P1;PMS_P2;Temp;Humidity;BMP_temperature;BMP_pressure;BME280_temperature;BME280_humidity;BME280_pressure;Samples;Min_cycle;Max_cycle;Signal;HPM_P1;HPM_P2
2024/04/14 00:01:50;;;;;;;5.22;2.45;;;17.00;99.90;;;;;;5383194;26;20044;-64
2024/04/14 00:04:15;;;;;;;4.28;2.40;;;17.00;99.90;;;;;;5389298;26;20058;-64
2024/04/14 00:06:41;;;;;;;5.32;2.55;;;17.00;99.90;;;;;;5383892;26;20073;-64
2024/04/14 00:09:06;;;;;;;4.43;2.30;;;17.00;99.90;;;;;;5381709;26;20037;-63
2024/04/14 00:11:32;;;;;;;4.07;2.05;;;16.90;99.90;;;;;;5385396;26;20074;-62
2024/04/14 00:13:57;;;;;;;5.65;2.40;;;16.90;99.90;;;;;;5382721;26;20023;-63
2024/04/14 00:16:23;;;;;;;14.05;2.75;;;16.90;99.90;;;;;;5383226;26;20036;-63
2024/04/14 00:18:48;;;;;;;4.43;2.17;;;16.80;99.90;;;;;;5383895;26;20004;-62
2024/04/14 00:21:14;;;;;;;5.28;2.42;;;16.80;99.90;;;;;;5386802;26;20035;-61
2024/04/14 00:23:40;;;;;;;6.18;2.53;;;16.70;99.90;;;;;;5380377;26;20041;-62
2024/04/14 00:26:08;;;;;;;7.38;2.65;;;16.70;99.90;;;;;;5349851;26;20512;-63
2024/04/14 00:28:34;;;;;;;4.07;2.60;;;16.70;99.90;;;;;;5384767;26;20001;-63
2024/04/14 00:30:59;;;;;;;4.60;2.75;;;16.70;99.90;;;;;;5355001;26;20010;-63
2024/04/14 00:33:25;;;;;;;4.47;2.42;;;16.60;99.90;;;;;;5386106;26;20001;-61
2024/04/14 00:35:50;;;;;;;4.30;2.20;;;16.60;99.90;;;;;;5387379;26;20019;-62
2024/04/14 00:38:16;;;;;;;4.45;2.50;;;16.60;99.90;;;;;;5379342;26;20051;-62
2024/04/14 00:40:42;;;;;;;9.70;2.28;;;16.60;99.90;;;;;;5380043;26;20011;-63
2024/04/14 00:43:14;;;;;;;3.92;2.75;;;16.60;99.90;;;;;;5385415;26;20000;-63
2024/04/14 00:45:40;;;;;;;5.97;1.98;;;16.50;99.90;;;;;;5388320;26;20007;-61
2024/04/14 00:48:06;;;;;;;5.60;2.33;;;16.50;99.90;;;;;;5351970;26;20000;-63
2024/04/14 00:50:33;;;;;;;4.32;2.22;;;16.40;99.90;;;;;;5330520;26;20004;-64
2024/04/14 00:52:59;;;;;;;4.93;2.50;;;16.30;99.90;;;;;;5386665;26;20000;-63
2024/04/14 00:55:25;;;;;;;8.15;2.10;;;16.30;99.90;;;;;;5366609;26;20594;-64
2024/04/14 00:57:51;;;;;;;4.40;2.42;;;16.20;99.90;;;;;;5390361;26;20024;-62
2024/04/14 01:00:18;;;;;;;7.70;1.98;;;16.20;99.90;;;;;;5378555;26;20358;-61
2024/04/14 01:02:43;;;;;;;5.32;2.10;;;16.10;99.90;;;;;;5371952;26;20071;-61
2024/04/14 01:05:09;;;;;;;7.75;2.90;;;16.10;99.90;;;;;;5370882;26;20008;-64
2024/04/14 01:07:36;;;;;;;5.70;3.38;;;16.00;99.90;;;;;;5371361;26;20062;-64
2024/04/14 01:10:02;;;;;;;4.45;2.22;;;16.00;99.90;;;;;;5373230;26;20581;-63
2024/04/14 01:12:27;;;;;;;3.88;2.15;;;15.90;99.90;;;;;;5341831;26;20000;-62
2024/04/14 01:14:53;;;;;;;3.90;2.10;;;15.80;99.90;;;;;;5374500;26;20061;-63
2024/04/14 01:17:19;;;;;;;5.80;1.67;;;15.70;99.90;;;;;;5372173;26;20480;-62
2024/04/14 01:19:44;;;;;;;4.78;2.05;;;15.70;99.90;;;;;;5369233;26;20338;-62
2024/04/14 01:22:11;;;;;;;3.20;1.98;;;15.60;99.90;;;;;;5372047;26;19996;-63
2024/04/14 01:24:36;;;;;;;5.25;1.88;;;15.50;99.90;;;;;;5369504;26;20332;-60
2024/04/14 01:27:02;;;;;;;1.90;1.23;;;15.50;99.90;;;;;;5376642;26;20008;-62
2024/04/14 01:29:27;;;;;;;1.20;0.95;;;15.50;99.90;;;;;;5371568;26;20367;-61
2024/04/14 01:31:53;;;;;;;8.48;1.08;;;15.50;99.90;;;;;;5370677;26;20061;-61
2024/04/14 01:34:20;;;;;;;1.15;0.90;;;15.50;99.90;;;;;;5372851;26;20015;-62
2024/04/14 01:36:45;;;;;;;2.17;1.13;;;15.50;99.90;;;;;;5374479;26;19997;-63
2024/04/14 01:39:11;;;;;;;1.70;0.90;;;15.40;99.90;;;;;;5340651;26;20429;-65
2024/04/14 01:41:36;;;;;;;4.18;0.88;;;15.40;99.90;;;;;;5382072;26;20463;-63
2024/04/14 01:44:02;;;;;;;2.53;0.77;;;15.30;99.90;;;;;;5348085;26;19996;-63
2024/04/14 01:46:27;;;;;;;3.85;1.10;;;15.20;99.60;;;;;;5387100;26;20001;-60
2024/04/14 01:48:53;;;;;;;1.65;0.50;;;15.20;99.40;;;;;;5387592;26;20318;-62
2024/04/14 01:51:18;;;;;;;1.95;0.70;;;15.10;98.50;;;;;;5381560;26;20015;-63
2024/04/14 01:53:44;;;;;;;4.50;0.93;;;15.10;98.60;;;;;;5390427;26;20012;-63
2024/04/14 01:56:09;;;;;;;1.13;0.73;;;15.00;98.30;;;;;;5380000;26;20037;-60
2024/04/14 01:58:35;;;;;;;2.72;0.77;;;15.00;98.60;;;;;;5378501;26;20004;-64
2024/04/14 02:01:00;;;;;;;2.30;0.73;;;14.90;98.70;;;;;;5384087;26;20004;-63
2024/04/14 02:03:26;;;;;;;2.47;0.85;;;14.80;98.80;;;;;;5388992;26;19996;-61
2024/04/14 02:05:56;;;;;;;1.17;0.80;;;14.70;98.80;;;;;;5389423;26;20008;-64
2024/04/14 02:08:22;;;;;;;2.17;0.70;;;14.60;98.80;;;;;;5380921;26;20373;-62
2024/04/14 02:10:47;;;;;;;3.60;1.02;;;14.50;98.80;;;;;;5380454;26;20004;-63
2024/04/14 02:13:13;;;;;;;1.52;0.68;;;14.40;99.50;;;;;;5385185;26;20000;-61
2024/04/14 02:15:40;;;;;;;2.65;0.85;;;14.30;99.00;;;;;;5383393;26;20476;-63
2024/04/14 02:18:05;;;;;;;11.73;1.35;;;14.40;98.80;;;;;;5373973;26;19997;-63
2024/04/14 02:20:31;;;;;;;3.85;0.95;;;14.30;99.00;;;;;;5373338;26;20007;-63
2024/04/14 02:22:57;;;;;;;4.00;0.95;;;14.30;99.40;;;;;;5373986;26;20012;-63
2024/04/14 02:25:23;;;;;;;5.20;0.93;;;14.20;99.40;;;;;;5367412;26;20000;-62
2024/04/14 02:27:48;;;;;;;4.63;0.95;;;14.10;99.60;;;;;;5374275;26;20008;-63
2024/04/14 02:30:14;;;;;;;3.78;1.08;;;14.00;99.60;;;;;;5373474;26;20011;-63
2024/04/14 02:32:39;;;;;;;2.15;0.88;;;13.90;99.70;;;;;;5393486;21;20015;-56
2024/04/14 02:35:08;;;;;;;1.90;0.60;;;13.80;99.90;;;;;;5336734;26;20008;-55
2024/04/14 02:37:33;;;;;;;3.20;1.00;;;13.80;99.90;;;;;;5342365;26;20089;-56
2024/04/14 02:39:59;;;;;;;6.57;1.02;;;13.70;99.90;;;;;;5342441;26;20447;-59
2024/04/14 02:42:24;;;;;;;1.40;0.60;;;13.60;99.90;;;;;;5340125;26;20463;-57
2024/04/14 02:44:50;;;;;;;1.58;0.70;;;13.50;99.90;;;;;;5332016;26;20747;-57
2024/04/14 02:47:16;;;;;;;1.98;0.88;;;13.40;99.90;;;;;;5340305;26;20416;-58
2024/04/14 02:49:41;;;;;;;4.03;0.77;;;13.40;99.90;;;;;;5346411;26;20019;-56
2024/04/14 02:52:07;;;;;;;1.60;0.90;;;13.40;99.90;;;;;;5347450;26;20009;-57
2024/04/14 02:54:33;;;;;;;3.17;0.90;;;13.40;99.90;;;;;;5344315;26;20001;-57
2024/04/14 02:56:58;;;;;;;2.95;0.90;;;13.30;99.90;;;;;;5344429;26;20131;-54
2024/04/14 02:59:24;;;;;;;1.50;0.73;;;13.40;99.90;;;;;;5344898;26;20005;-56
2024/04/14 03:01:49;;;;;;;3.97;1.13;;;13.30;99.90;;;;;;5338150;26;20138;-57
2024/04/14 03:04:15;;;;;;;3.83;1.48;;;13.30;99.90;;;;;;5344639;26;20000;-59
2024/04/14 03:06:40;;;;;;;6.10;0.80;;;13.20;99.90;;;;;;5346102;26;19997;-57
2024/04/14 03:09:06;;;;;;;4.43;1.00;;;13.20;99.90;;;;;;5341571;26;20001;-56
2024/04/14 03:11:31;;;;;;;3.45;0.95;;;13.10;99.90;;;;;;5336734;26;20011;-56
2024/04/14 03:13:57;;;;;;;3.15;0.90;;;13.00;99.90;;;;;;5339367;26;20097;-57
2024/04/14 03:16:23;;;;;;;4.05;1.10;;;13.00;99.90;;;;;;5345292;26;20000;-55
2024/04/14 03:18:48;;;;;;;2.75;0.93;;;12.90;99.90;;;;;;5345391;26;20008;-56
2024/04/14 03:21:14;;;;;;;6.90;1.60;;;12.90;99.90;;;;;;5344151;26;20014;-58
2024/04/14 03:23:40;;;;;;;1.10;0.57;;;12.90;99.90;;;;;;5343230;26;20000;-59
2024/04/14 03:26:06;;;;;;;3.92;0.77;;;12.80;99.90;;;;;;5346069;26;20000;-56
2024/04/14 03:28:32;;;;;;;1.70;0.63;;;12.80;99.90;;;;;;5345327;26;20078;-57
2024/04/14 03:31:01;;;;;;;6.18;0.88;;;12.80;99.90;;;;;;5345197;26;19993;-56
2024/04/14 03:33:30;;;;;;;4.13;0.95;;;12.80;99.90;;;;;;5339344;26;20005;-55
2024/04/14 03:36:04;;;;;;;4.03;1.15;;;12.80;99.90;;;;;;5335123;26;20005;-59
2024/04/14 03:38:31;;;;;;;3.15;0.95;;;12.70;99.90;;;;;;5345244;26;20684;-57
2024/04/14 03:40:57;;;;;;;6.50;1.20;;;12.60;99.90;;;;;;5345502;26;20017;-58
2024/04/14 03:43:23;;;;;;;3.25;0.90;;;12.60;99.90;;;;;;5346436;26;20079;-58
2024/04/14 03:45:48;;;;;;;4.05;1.05;;;12.60;99.90;;;;;;5342301;26;20001;-58
2024/04/14 03:48:14;;;;;;;4.18;0.82;;;12.50;99.90;;;;;;5339940;26;20048;-57
2024/04/14 03:50:40;;;;;;;3.40;1.10;;;12.50;99.90;;;;;;5342109;26;20102;-58
2024/04/14 03:53:05;;;;;;;2.78;1.23;;;12.40;99.90;;;;;;5343820;26;19996;-56
2024/04/14 03:55:31;;;;;;;2.63;1.00;;;12.40;99.90;;;;;;5337919;26;20405;-59
2024/04/14 03:57:57;;;;;;;1.23;0.73;;;12.30;99.90;;;;;;5344643;26;20447;-56
2024/04/14 04:00:23;;;;;;;4.03;1.08;;;12.20;99.90;;;;;;5338260;26;20025;-59
2024/04/14 04:02:49;;;;;;;1.48;0.95;;;12.20;99.90;;;;;;5348994;26;20063;-57
2024/04/14 04:05:14;;;;;;;4.65;1.05;;;12.20;99.90;;;;;;5338099;26;20940;-58
2024/04/14 04:07:40;;;;;;;3.70;1.45;;;12.20;99.90;;;;;;5339484;26;19997;-56
2024/04/14 04:10:06;;;;;;;5.65;1.05;;;12.10;99.90;;;;;;5338752;26;20005;-58
2024/04/14 04:12:31;;;;;;;4.32;1.05;;;12.10;99.90;;;;;;5338206;26;20096;-56
2024/04/14 04:14:57;;;;;;;7.32;1.25;;;12.10;99.90;;;;;;5337878;26;20012;-55
2024/04/14 04:17:23;;;;;;;2.95;0.98;;;12.00;99.90;;;;;;5336008;26;19997;-55
2024/04/14 04:19:48;;;;;;;5.43;1.05;;;12.00;99.90;;;;;;5332824;26;20001;-59
2024/04/14 04:22:14;;;;;;;3.15;1.10;;;11.90;99.90;;;;;;5342042;26;20489;-57
2024/04/14 04:24:40;;;;;;;7.25;1.25;;;11.90;99.90;;;;;;5338534;26;19996;-53
2024/04/14 04:27:05;;;;;;;4.93;1.10;;;11.80;99.90;;;;;;5339205;26;20012;-60
2024/04/14 04:29:31;;;;;;;3.45;1.13;;;11.70;99.90;;;;;;5335698;26;20058;-57
2024/04/14 04:31:56;;;;;;;4.72;1.42;;;11.70;99.90;;;;;;5337826;26;19997;-57
2024/04/14 04:34:23;;;;;;;4.90;1.58;;;11.70;99.90;;;;;;5338303;26;20416;-56
2024/04/14 04:36:48;;;;;;;2.40;1.13;;;11.70;99.90;;;;;;5341209;26;20001;-58
2024/04/14 04:39:15;;;;;;;8.13;1.05;;;11.60;99.90;;;;;;5341937;26;20012;-59
2024/04/14 04:41:40;;;;;;;4.97;1.20;;;11.60;99.90;;;;;;5344521;26;20008;-58
2024/04/14 04:44:06;;;;;;;3.70;1.33;;;11.60;99.90;;;;;;5342355;26;20398;-57
2024/04/14 04:46:32;;;;;;;4.18;1.13;;;11.60;99.90;;;;;;5344454;26;20001;-56
2024/04/14 04:48:59;;;;;;;4.60;1.40;;;11.60;99.90;;;;;;5344903;26;20334;-58
2024/04/14 04:51:25;;;;;;;4.22;1.42;;;11.60;99.90;;;;;;5339582;26;20342;-55
2024/04/14 04:53:50;;;;;;;5.53;1.52;;;11.60;99.90;;;;;;5340669;26;20008;-56
2024/04/14 04:56:16;;;;;;;4.97;1.30;;;11.60;99.90;;;;;;5346151;26;20011;-56
2024/04/14 04:58:41;;;;;;;7.40;1.73;;;11.70;99.90;;;;;;5342880;26;19996;-57
2024/04/14 05:01:09;;;;;;;6.15;1.35;;;11.70;99.90;;;;;;5341234;26;20016;-56
2024/04/14 05:03:35;;;;;;;2.88;1.08;;;11.80;99.90;;;;;;5344494;26;20075;-57
2024/04/14 05:06:02;;;;;;;5.55;1.52;;;11.80;99.90;;;;;;5338673;26;20095;-56
2024/04/14 05:08:28;;;;;;;3.63;1.10;;;11.90;99.90;;;;;;5341740;26;20343;-55
2024/04/14 05:10:54;;;;;;;6.88;1.55;;;12.00;99.90;;;;;;5335249;26;20005;-57
2024/04/14 05:13:20;;;;;;;6.50;1.80;;;12.10;99.90;;;;;;5332771;26;20044;-59
2024/04/14 05:15:47;;;;;;;5.80;1.27;;;12.20;99.90;;;;;;5335207;26;19993;-60
2024/04/14 05:18:13;;;;;;;6.32;1.40;;;12.30;99.90;;;;;;5335950;26;20431;-57
2024/04/14 05:20:39;;;;;;;8.05;2.00;;;12.40;99.90;;;;;;5336989;26;20372;-58
2024/04/14 05:23:05;;;;;;;3.70;1.15;;;12.50;99.90;;;;;;5336372;26;20005;-56
2024/04/14 05:25:31;;;;;;;3.85;1.42;;;12.60;99.90;;;;;;5333889;26;20098;-59
2024/04/14 05:27:56;;;;;;;3.65;1.33;;;12.60;99.90;;;;;;5333165;26;20013;-59
2024/04/14 05:30:22;;;;;;;10.32;1.60;;;12.80;99.90;;;;;;5332418;26;19993;-58
2024/04/14 05:32:50;;;;;;;4.65;1.27;;;12.90;99.90;;;;;;5331251;26;20020;-57
2024/04/14 05:35:16;;;;;;;6.90;1.63;;;12.90;99.90;;;;;;5332018;26;20008;-55
2024/04/14 05:37:41;;;;;;;6.10;1.50;;;13.10;99.90;;;;;;5329113;26;20023;-55
2024/04/14 05:40:07;;;;;;;6.43;1.40;;;13.10;99.90;;;;;;5339468;26;20354;-57
2024/04/14 05:42:33;;;;;;;6.97;1.30;;;13.20;99.90;;;;;;5336768;26;20350;-59
2024/04/14 05:44:58;;;;;;;12.02;1.95;;;13.20;99.90;;;;;;5343651;26;20000;-55
2024/04/14 05:47:24;;;;;;;2.78;1.38;;;13.30;99.90;;;;;;5341789;26;20358;-59
2024/04/14 05:49:50;;;;;;;9.80;1.75;;;13.40;99.90;;;;;;5342388;26;20072;-57
2024/04/14 05:52:15;;;;;;;4.63;1.90;;;13.50;99.90;;;;;;5335494;26;20008;-57
2024/04/14 05:54:41;;;;;;;4.55;1.33;;;13.60;99.90;;;;;;5331566;26;19993;-57
2024/04/14 05:57:06;;;;;;;7.90;1.90;;;13.80;99.90;;;;;;5343438;26;20001;-58
2024/04/14 05:59:32;;;;;;;5.47;1.80;;;13.90;99.90;;;;;;5336865;26;20078;-56
2024/04/14 06:01:57;;;;;;;6.75;2.00;;;14.00;99.90;;;;;;5340945;26;20016;-59
2024/04/14 06:04:41;;;;;;;4.13;1.52;;;14.00;99.90;;;;;;5340788;26;20447;-56
2024/04/14 06:07:07;;;;;;;5.00;1.63;;;14.20;99.90;;;;;;5339887;26;19997;-56
2024/04/14 06:09:32;;;;;;;3.47;1.70;;;14.30;99.90;;;;;;5331347;26;20099;-57
2024/04/14 06:11:58;;;;;;;6.00;1.98;;;14.30;99.90;;;;;;5335661;26;20470;-56
2024/04/14 06:14:23;;;;;;;6.40;1.90;;;14.20;99.90;;;;;;5336239;26;20020;-56
2024/04/14 06:16:49;;;;;;;3.85;1.50;;;14.40;99.90;;;;;;5338272;26;20009;-57
2024/04/14 06:19:16;;;;;;;7.18;1.88;;;14.60;99.90;;;;;;5336805;26;20009;-58
2024/04/14 06:21:42;;;;;;;6.20;2.17;;;14.80;99.90;;;;;;5335819;26;19997;-59
2024/04/14 06:24:08;;;;;;;7.47;2.05;;;14.90;99.90;;;;;;5340265;26;20401;-58
2024/04/14 06:26:33;;;;;;;4.65;2.15;;;15.00;99.90;;;;;;5336096;26;20078;-61
2024/04/14 06:28:59;;;;;;;7.00;2.15;;;15.20;99.90;;;;;;5341612;26;20000;-60
2024/04/14 06:31:24;;;;;;;8.43;2.30;;;15.30;99.90;;;;;;5335842;26;20019;-59
2024/04/14 06:33:50;;;;;;;7.03;2.60;;;15.60;99.90;;;;;;5336801;26;20025;-56
2024/04/14 06:36:16;;;;;;;9.18;3.15;;;15.90;99.90;;;;;;5339904;26;20004;-59
2024/04/14 06:38:44;;;;;;;6.97;2.10;;;16.20;99.90;;;;;;5336454;26;20016;-59
2024/04/14 06:41:10;;;;;;;6.80;2.72;;;16.20;99.90;;;;;;5341029;26;20000;-57
2024/04/14 06:43:36;;;;;;;10.00;2.60;;;16.30;99.90;;;;;;5336609;26;22335;-56
2024/04/14 06:46:02;;;;;;;6.35;2.85;;;16.40;99.90;;;;;;5334077;26;20005;-55
2024/04/14 06:48:27;;;;;;;7.65;2.42;;;16.30;99.90;;;;;;5341170;26;20013;-59
2024/04/14 06:50:53;;;;;;;8.77;3.08;;;16.30;99.90;;;;;;5336293;26;20119;-60
2024/04/14 06:53:20;;;;;;;8.98;2.83;;;16.30;99.90;;;;;;5341818;26;20001;-54
2024/04/14 06:55:47;;;;;;;10.68;3.10;;;16.50;99.90;;;;;;5341339;26;19996;-56
2024/04/14 06:58:13;;;;;;;12.45;4.75;;;16.40;99.90;;;;;;5344785;26;19996;-57
2024/04/14 07:00:39;;;;;;;11.55;3.35;;;16.20;99.90;;;;;;5342670;26;19997;-59
2024/04/14 07:03:04;;;;;;;13.45;4.72;;;16.30;99.90;;;;;;5340422;26;20019;-56
2024/04/14 07:05:30;;;;;;;12.50;3.75;;;16.30;99.90;;;;;;5343979;26;20011;-56
2024/04/14 07:07:55;;;;;;;10.82;3.40;;;16.80;99.90;;;;;;5343990;26;20028;-58
2024/04/14 07:10:21;;;;;;;9.18;3.10;;;16.90;99.90;;;;;;5342319;26;20041;-61
2024/04/14 07:12:47;;;;;;;10.05;3.45;;;17.40;99.90;;;;;;5332779;26;20005;-60
2024/04/14 07:15:13;;;;;;;11.35;3.35;;;17.50;99.90;;;;;;5331516;26;20015;-59
2024/04/14 07:17:39;;;;;;;14.82;4.18;;;17.70;99.90;;;;;;5354678;26;20081;-57
2024/04/14 07:20:05;;;;;;;12.55;3.63;;;18.00;99.90;;;;;;5336688;26;20009;-56
2024/04/14 07:22:31;;;;;;;9.50;3.40;;;18.80;99.90;;;;;;5340921;26;20012;-58
2024/04/14 07:24:58;;;;;;;10.60;3.47;;;19.60;99.90;;;;;;5336742;26;20015;-60
2024/04/14 07:27:23;;;;;;;12.25;3.83;;;20.10;98.80;;;;;;5334752;26;20012;-56
2024/04/14 07:29:49;;;;;;;9.77;3.10;;;19.90;98.60;;;;;;5338811;26;19997;-61
2024/04/14 07:32:15;;;;;;;13.10;3.35;;;20.10;98.90;;;;;;5340731;26;20009;-59
2024/04/14 07:34:41;;;;;;;9.77;3.20;;;20.50;97.70;;;;;;5340225;26;20005;-59
2024/04/14 07:37:07;;;;;;;11.15;2.95;;;20.80;97.70;;;;;;5340421;26;20012;-57
2024/04/14 07:39:32;;;;;;;14.68;4.00;;;20.70;97.00;;;;;;5335979;26;20012;-60
2024/04/14 07:42:00;;;;;;;8.23;2.60;;;20.70;96.80;;;;;;5338643;26;20286;-60
2024/04/14 07:44:26;;;;;;;7.45;3.53;;;20.30;97.00;;;;;;5341120;26;19993;-58
2024/04/14 07:46:51;;;;;;;10.65;4.03;;;19.80;97.20;;;;;;5338364;26;19997;-60
2024/04/14 07:49:17;;;;;;;9.77;3.05;;;19.60;97.90;;;;;;5342566;26;20004;-60
2024/04/14 07:51:43;;;;;;;9.85;3.70;;;19.40;98.80;;;;;;5341597;26;20004;-58
2024/04/14 07:54:08;;;;;;;6.63;2.80;;;19.90;97.90;;;;;;5343102;26;20021;-56
2024/04/14 07:56:34;;;;;;;9.77;3.58;;;20.20;98.10;;;;;;5333727;26;19997;-61
2024/04/14 07:58:59;;;;;;;10.05;3.72;;;20.20;97.90;;;;;;5341441;26;19994;-61
2024/04/14 08:01:25;;;;;;;10.82;4.05;;;20.50;97.10;;;;;;5334542;26;20013;-59
2024/04/14 08:03:50;;;;;;;9.30;3.42;;;21.10;97.00;;;;;;5336595;26;20009;-59
2024/04/14 08:06:16;;;;;;;8.15;3.03;;;21.60;96.00;;;;;;5334279;26;20029;-61
2024/04/14 08:08:41;;;;;;;7.32;4.03;;;21.90;95.50;;;;;;5337504;26;20032;-61
2024/04/14 08:11:08;;;;;;;9.95;3.90;;;21.80;94.70;;;;;;5335083;26;20075;-60
2024/04/14 08:13:33;;;;;;;14.32;3.38;;;21.90;95.50;;;;;;5331962;26;20371;-62
2024/04/14 08:15:59;;;;;;;10.52;3.22;;;22.10;94.70;;;;;;5334340;26;20013;-59
2024/04/14 08:18:24;;;;;;;10.25;3.63;;;22.20;94.60;;;;;;5337903;26;20012;-62
2024/04/14 08:20:58;;;;;;;10.45;3.67;;;22.30;94.60;;;;;;5336107;26;20000;-61
2024/04/14 08:23:23;;;;;;;11.15;3.67;;;22.30;94.00;;;;;;5336329;26;20008;-60
2024/04/14 08:25:49;;;;;;;9.60;3.95;;;22.00;94.20;;;;;;5339983;26;20001;-60
2024/04/14 08:28:15;;;;;;;11.35;3.30;;;21.90;94.30;;;;;;5336246;26;22209;-58
2024/04/14 08:30:40;;;;;;;11.63;3.63;;;22.60;94.00;;;;;;5337340;26;20354;-60
2024/04/14 08:33:06;;;;;;;11.50;3.88;;;23.10;92.90;;;;;;5363076;21;20133;-61
2024/04/14 08:35:31;;;;;;;13.15;3.33;;;21.90;93.50;;;;;;5403613;26;20328;-61
2024/04/14 08:37:57;;;;;;;11.48;3.45;;;21.60;94.70;;;;;;5411499;26;20329;-61
2024/04/14 08:40:22;;;;;;;6.75;2.70;;;21.50;94.50;;;;;;5410858;26;19999;-61
2024/04/14 08:42:48;;;;;;;13.05;3.67;;;21.00;95.30;;;;;;5409036;26;20395;-61
2024/04/14 08:45:16;;;;;;;6.90;3.45;;;20.90;95.70;;;;;;5410602;26;20004;-61
2024/04/14 08:47:42;;;;;;;8.07;3.25;;;20.80;95.30;;;;;;5408810;26;20011;-61
2024/04/14 08:50:09;;;;;;;12.65;4.00;;;20.40;95.80;;;;;;5409588;26;20050;-60
2024/04/14 08:52:37;;;;;;;11.52;3.88;;;20.30;96.00;;;;;;5408666;26;20422;-60
2024/04/14 08:55:04;;;;;;;6.53;3.08;;;20.10;96.40;;;;;;5401162;26;20046;-60
2024/04/14 08:57:31;;;;;;;14.13;3.75;;;19.60;97.00;;;;;;5407519;26;19995;-60
2024/04/14 08:59:58;;;;;;;10.35;3.97;;;19.20;97.40;;;;;;5394385;26;20000;-61
2024/04/14 09:02:24;;;;;;;6.82;3.10;;;19.30;97.60;;;;;;5405334;26;19993;-61
2024/04/14 09:04:51;;;;;;;7.90;3.30;;;19.80;96.70;;;;;;5409754;26;20031;-61
2024/04/14 09:07:17;;;;;;;8.10;2.78;;;19.90;96.40;;;;;;5402673;26;20003;-61
2024/04/14 09:09:42;;;;;;;5.90;2.35;;;19.80;96.70;;;;;;5412081;26;20433;-60
2024/04/14 09:12:11;;;;;;;11.50;2.97;;;19.60;97.00;;;;;;5404445;26;20453;-60
2024/04/14 09:14:37;;;;;;;12.38;4.28;;;19.60;96.50;;;;;;5398718;26;20022;-60
2024/04/14 09:17:02;;;;;;;7.13;3.03;;;20.10;96.70;;;;;;5403747;26;19991;-61
2024/04/14 09:19:29;;;;;;;7.90;2.95;;;20.30;96.20;;;;;;5405283;26;20068;-60
2024/04/14 09:21:54;;;;;;;9.00;2.70;;;20.20;95.90;;;;;;5409904;26;20011;-61
2024/04/14 09:24:20;;;;;;;7.75;3.90;;;20.70;95.50;;;;;;5405531;26;20337;-61
2024/04/14 09:26:45;;;;;;;8.48;2.63;;;20.70;95.40;;;;;;5401921;26;20006;-60
2024/04/14 09:29:11;;;;;;;8.73;2.75;;;20.40;95.00;;;;;;5404131;26;20011;-60
2024/04/14 09:31:36;;;;;;;10.27;3.00;;;20.10;95.70;;;;;;5401797;26;20041;-60
2024/04/14 09:34:03;;;;;;;7.13;2.97;;;19.80;96.10;;;;;;5406353;26;20004;-60
2024/04/14 09:36:29;;;;;;;8.27;2.45;;;20.10;95.80;;;;;;5403506;26;20000;-60
2024/04/14 09:38:55;;;;;;;15.93;2.50;;;20.20;95.30;;;;;;5402274;26;20018;-61
2024/04/14 09:41:21;;;;;;;6.22;2.08;;;20.40;95.90;;;;;;5411850;26;19999;-61
2024/04/14 09:43:50;;;;;;;10.18;2.03;;;21.30;94.50;;;;;;5402766;26;20007;-61
2024/04/14 09:46:16;;;;;;;6.05;2.13;;;21.20;94.50;;;;;;5401724;26;20461;-61
2024/04/14 09:48:42;;;;;;;7.47;1.98;;;21.40;94.40;;;;;;5405754;26;20363;-61
2024/04/14 09:51:09;;;;;;;6.82;2.25;;;21.40;93.50;;;;;;5403487;26;20003;-61
2024/04/14 09:53:35;;;;;;;7.00;2.20;;;21.70;93.30;;;;;;5408482;26;20011;-61
2024/04/14 09:56:05;;;;;;;5.65;2.67;;;21.20;93.40;;;;;;5410902;26;20401;-61
2024/04/14 09:58:30;;;;;;;8.52;2.95;;;20.80;94.10;;;;;;5427440;26;20483;-61
2024/04/14 10:01:00;;;;;;;7.25;2.53;;;20.50;94.60;;;;;;5402635;26;20072;-60
2024/04/14 10:03:30;;;;;;;9.93;2.72;;;20.10;95.30;;;;;;5406050;26;20429;-60
2024/04/14 10:05:57;;;;;;;7.03;3.03;;;19.80;95.10;;;;;;5409384;26;20046;-60
2024/04/14 10:08:23;;;;;;;9.68;2.90;;;19.90;94.80;;;;;;5412939;26;20003;-60
2024/04/14 10:10:55;;;;;;;4.68;2.45;;;19.80;95.20;;;;;;5408773;26;20031;-60
2024/04/14 10:13:20;;;;;;;6.25;2.70;;;19.90;95.20;;;;;;5406894;26;20064;-60
2024/04/14 10:16:06;;;;;;;10.55;2.28;;;19.80;94.70;;;;;;5406949;26;20391;-60
2024/04/14 10:18:36;;;;;;;6.93;2.20;;;20.00;95.50;;;;;;5405272;26;20015;-60
2024/04/14 10:21:02;;;;;;;4.90;2.20;;;20.10;95.30;;;;;;5413139;26;20490;-60
2024/04/14 10:23:28;;;;;;;7.65;2.58;;;20.40;94.40;;;;;;5410179;26;20003;-60
2024/04/14 10:25:54;;;;;;;6.30;2.00;;;20.60;94.00;;;;;;5410618;26;20004;-60
2024/04/14 10:28:23;;;;;;;5.47;2.03;;;20.30;94.20;;;;;;5410272;26;20015;-60
2024/04/14 10:31:03;;;;;;;6.82;2.38;;;20.30;93.90;;;;;;5404399;26;20008;-60
2024/04/14 10:33:29;;;;;;;6.93;1.80;;;20.20;94.00;;;;;;5405665;26;19999;-60
2024/04/14 10:36:01;;;;;;;5.20;2.00;;;20.00;93.70;;;;;;5401613;26;20329;-60
2024/04/14 10:38:29;;;;;;;5.50;2.20;;;20.10;94.00;;;;;;5405748;26;20011;-60
2024/04/14 10:40:54;;;;;;;4.93;2.42;;;20.30;93.80;;;;;;5411677;26;20000;-60
2024/04/14 10:43:23;;;;;;;7.00;2.00;;;20.30;93.30;;;;;;5411625;26;20534;-60
2024/04/14 10:45:49;;;;;;;7.85;1.63;;;20.80;93.00;;;;;;5410398;26;20015;-60
2024/04/14 10:48:15;;;;;;;9.63;2.53;;;20.80;92.30;;;;;;5402655;26;20000;-60
2024/04/14 10:50:42;;;;;;;8.35;1.90;;;20.80;92.00;;;;;;5378546;26;20081;-60
2024/04/14 10:53:08;;;;;;;5.32;2.60;;;20.60;92.70;;;;;;5404403;26;20015;-62
2024/04/14 10:55:34;;;;;;;5.82;2.08;;;20.60;92.80;;;;;;5388822;26;20022;-62
2024/04/14 10:57:59;;;;;;;4.15;1.65;;;20.70;92.80;;;;;;5396676;26;20000;-62
2024/04/14 11:00:26;;;;;;;6.13;2.20;;;20.80;92.80;;;;;;5393511;26;19999;-62
2024/04/14 11:02:52;;;;;;;6.20;1.90;;;20.80;92.60;;;;;;5394742;26;20014;-62
2024/04/14 11:05:22;;;;;;;5.45;2.00;;;20.90;91.70;;;;;;5387123;26;20027;-62
2024/04/14 11:07:49;;;;;;;6.50;2.95;;;20.60;92.60;;;;;;5378040;26;20088;-62
2024/04/14 11:10:15;;;;;;;7.07;2.40;;;20.60;92.20;;;;;;5388795;26;20003;-62
2024/04/14 11:12:42;;;;;;;3.05;1.75;;;21.10;92.60;;;;;;5395568;26;20042;-62
2024/04/14 11:15:10;;;;;;;6.65;2.58;;;21.40;92.50;;;;;;5395342;26;20023;-62
2024/04/14 11:17:35;;;;;;;4.80;1.50;;;21.50;92.20;;;;;;5395174;26;20433;-62
2024/04/14 11:20:01;;;;;;;3.10;1.50;;;21.30;92.20;;;;;;5392858;26;19996;-62
2024/04/14 11:22:27;;;;;;;4.95;1.95;;;21.50;90.90;;;;;;5396332;26;20019;-62
2024/04/14 11:24:52;;;;;;;5.53;1.70;;;21.30;90.40;;;;;;5398759;26;20015;-62
2024/04/14 11:27:19;;;;;;;6.22;1.58;;;20.90;90.90;;;;;;5386547;26;19998;-62
2024/04/14 11:29:45;;;;;;;3.83;1.70;;;20.70;91.50;;;;;;5382496;26;20024;-62
2024/04/14 11:35:05;;;;;;;3.72;1.77;;;20.60;91.40;;;;;;5398005;26;20021;-62
2024/04/14 11:37:32;;;;;;;7.07;1.88;;;20.70;91.70;;;;;;5400250;26;20088;-62
2024/04/14 11:39:58;;;;;;;8.52;1.83;;;20.80;92.10;;;;;;5398187;26;20000;-63
2024/04/14 11:42:27;;;;;;;9.15;2.33;;;20.70;91.90;;;;;;5397338;26;20036;-62
2024/04/14 11:44:55;;;;;;;5.93;2.13;;;20.40;91.80;;;;;;5399267;26;20007;-62
2024/04/14 11:47:22;;;;;;;2.15;1.55;;;20.60;91.70;;;;;;5390761;26;20011;-62
2024/04/14 11:49:48;;;;;;;7.35;1.77;;;20.40;91.10;;;;;;5379738;26;20007;-62
2024/04/14 11:52:13;;;;;;;6.70;1.70;;;20.10;91.00;;;;;;5392890;26;20008;-62
2024/04/14 11:54:39;;;;;;;8.73;1.85;;;20.20;91.40;;;;;;5398442;26;20019;-62
2024/04/14 11:57:05;;;;;;;7.68;2.10;;;19.90;91.50;;;;;;5396605;26;20018;-62
2024/04/14 11:59:32;;;;;;;3.38;1.42;;;19.80;92.00;;;;;;5397932;26;20007;-62
2024/04/14 12:01:58;;;;;;;3.05;1.40;;;19.90;91.70;;;;;;5392932;26;20022;-62
2024/04/14 12:04:23;;;;;;;4.15;1.48;;;20.00;91.80;;;;;;5396255;26;20004;-62
2024/04/14 12:06:49;;;;;;;2.85;1.48;;;20.40;90.10;;;;;;5397000;26;20011;-61
2024/04/14 12:09:14;;;;;;;5.60;1.65;;;20.50;89.80;;;;;;5395060;26;20015;-62
2024/04/14 12:11:40;;;;;;;4.75;1.98;;;20.40;90.80;;;;;;5395579;26;20412;-62
2024/04/14 12:14:05;;;;;;;4.15;1.80;;;19.70;90.80;;;;;;5396791;26;20000;-62
2024/04/14 12:16:33;;;;;;;8.52;2.03;;;19.60;91.30;;;;;;5398188;26;20026;-62
2024/04/14 12:18:59;;;;;;;4.35;2.00;;;19.70;91.50;;;;;;5395643;26;19999;-62
2024/04/14 12:21:25;;;;;;;5.13;2.15;;;19.70;92.00;;;;;;5398010;26;21507;-62
2024/04/14 12:23:50;;;;;;;4.75;1.98;;;19.70;91.80;;;;;;5395398;26;20695;-63
2024/04/14 12:26:16;;;;;;;4.40;1.85;;;19.90;91.30;;;;;;5399841;26;20008;-63
2024/04/14 12:28:41;;;;;;;7.45;2.00;;;19.60;90.90;;;;;;5399341;26;20033;-63
2024/04/14 12:31:07;;;;;;;6.22;1.70;;;19.80;91.80;;;;;;5394977;26;20011;-63
2024/04/14 12:33:32;;;;;;;7.65;1.90;;;20.40;91.90;;;;;;5394058;26;20019;-63
2024/04/14 12:35:58;;;;;;;3.88;1.95;;;20.70;90.80;;;;;;5398257;26;19999;-63
2024/04/14 12:38:23;;;;;;;9.60;2.13;;;20.30;91.00;;;;;;5389807;26;20015;-63
2024/04/14 12:40:50;;;;;;;7.40;2.75;;;20.60;91.10;;;;;;5394154;26;20004;-63
2024/04/14 12:43:15;;;;;;;7.78;2.13;;;20.70;91.10;;;;;;5390305;26;20004;-62